210650Z 33003KT CAVOK M17/M20 Q1024 RWY 14 ICE 0-10 PCT FCT 0.60=

210530Z 2106/2115 32004KT CAVOK=

Aktuell METAR/TAF ESNU/UME

Källa: Luftfartsverket (aro.lfv.se)